Latest Observation

114 Stations

10 Minute Data
as of 9/4/26 7:18 PM PDT
Station Date Time Temp (°F) RH (%) Dew Pt (°F) Wind Spd (mph) Wind Dir (°) Wind Gust (mph) Wind Gst Dir (°) Latest Rain (In) Soil Moist (%) Soil Temp (°F) Daily Rain (In) Daily Min Temp (°F) Daily Max Temp (°F) Daily Max Wind (mph)
Hobart Mills 9/4/26 1910 51.2   2.0 71   7 42.0   0.4 2.3   0.6 SW | 216 7.9   3.9 SW | 224 0.00 7.5   0.1 62.0   1.8 0.07 46.9   1.8 57.4   0.4 16.8   3.7
Prosser Dam 9/4/26 1910 53.0   0.7 69   3 43.1   1.8 2.8   2.9 SW | 215 5.3   8.7 SW | 216 0.00 5.2   0.1 60.4   0.9 0.16 48.1   2.0 60.0   0.5 20.2   1.2
West Incline Village 9/4/26 1910 47.7   0.9 72   5 39.2   1.0 1.8   1.1 WSW | 255 7.5   2.6 SW | 234 0.00 11.6   0.1 56.0   0.8 0.07 43.7   0.8 50.7   1.5 21.6   2.4
Incline Village (Fairview Blvd) 9/4/26 1910 49.8   1.2 69   5 40.1   0.7 1.3   1.5 WSW | 245 7.8   5.3 SSW | 202 0.00 7.6   0.1 68.2   1.6 0.00 45.6   0.8 58.0   3.9 18.5   3.0
Incline Village (Diamond Peak) 9/4/26 1910 47.6   1.7 74   6 39.9   0.4 3.3   1.4 WNW | 294 8.4   1.9 NW | 313 0.00 2.5   0.0 56.7   1.8 0.01 44.0   0.4 50.8   0.1 12.9   2.2
Incline Village (Mill Creek) 9/4/26 1910 52.3   1.6 69   5 42.4   0.3 2.9   1.3 WSW | 253 10.7   6.2 S | 191 0.00 2.9   0.0 60.8   0.8 0.00 48.8   0.6 55.5   1.4 18.9   0.0
Incline Village (Lakeshore Blvd) 9/4/26 1910 53.9   0.5 72   4 45.0   0.9 3.6   2.7 WSW | 242 7.1   3.1 WSW | 248 0.00 22.4   2.2 61.2   0.2 0.00 51.0   0.5 57.2   0.4 17.0   0.1
Glenbrook 9/4/26 1910 54.6   0.1 64   1 42.6   0.3 5.6   5.6 WSW | 238 11.2   6.8 WSW | 255 0.00 43.4   0.2 58.2   0.1 0.00 51.7   0.1 57.8   0.0 26.3   2.5
Zephyr Cove 9/4/26 1910 52.7   0.3 62   0 40.0   0.4 1.3   0.0 SSE | 158 5.7   0.0 ESE | 115 0.00 2.9   0.1 65.6   2.3 0.00 49.9   2.1 60.4   1.6 12.5   0.6
Kingsbury Grade 9/4/26 1910 51.4   0.1 65   1 40.0   0.1 0.7   1.4 NW | 307 3.8   7.3 WNW | 298 0.00 2.3   0.0 63.8   1.9 0.00 47.5   3.3 58.0   2.0 18.4   1.4
South Daggett Pass (Ridge) 9/4/26 1910 48.8   1.4 70   3 39.4   0.1 2.8   0.1 NW | 311 10.3   1.1 NW | 306 0.00 2.2   0.0 61.2   0.7 0.00 44.0   3.4 55.0   0.6 18.4   7.0
Palomino Valley 9/4/26 1910 64.2   1.3 40   5 39.2   2.1 10.0   1.3 WSW | 247 18.8   0.2 WSW | 242 0.00 6.6   0.0 75.1   0.4 0.00 54.1   2.5 70.8   1.3 34.6   1.4
East Cold Springs 9/4/26 1910 57.4   2.8 49   11 38.6   2.3 13.9   3.5 W | 261 22.5   4.7 WSW | 258 0.00 1.5   0.0 70.3   0.0 0.01 50.6   1.3 64.0   2.1 27.1   3.6
Peavine 9/4/26 1910 55.1   2.0 50   9 36.8   2.1 32.9   14.0 WSW | 239 41.2   13.8 WSW | 241 0.00 4.3   0.1 67.7   2.2 0.05 50.0   1.2 60.8   1.3 41.9   5.0
West Verdi Peak 9/4/26 2010 50.5   1.7 70   5 41.0   0.0 1.6   2.2 SSE | 166 7.0   3.5 WSW | 256 0.00 6.4   0.1 66.1   1.2 0.22 46.6   1.3 57.9   0.7 19.9   1.9
West Verdi 9/4/26 1910 57.2   1.5 58   4 42.6   0.3 6.2   1.9 WSW | 256 11.9   5.0 SSW | 203 0.00 6.1   0.0 76.2   2.4 0.08 52.2   2.6 63.6   0.6 27.8   8.7
South Verdi 9/4/26 1910 55.9   0.2 58   0 41.2   0.3 13.7   6.4 SW | 220 23.8   10.5 SW | 215 0.00 10.1   0.3 69.5   2.9 0.03 51.5   1.9 62.1   0.2 35.4   6.8
Northwest Reno 9/4/26 1910 58.4   0.6 53   2 41.4   0.2 34.7   16.0 W | 259 43.4   15.0 WSW | 251 0.00 24.5   0.1 73.2   1.8 0.00 54.3   0.8 63.6   1.9 50.9   0.4
North Lawton 8/28/26 1620 63.8   17.1 74   52 55.4   16.5 1.5   11.6 ESE | 121 5.1   19.0 SE | 124 0.00 - 78.2   0.0 0.05 59.2   7.5 71.9   13.3 20.4   4.6
West Reno (Mogul) 9/4/26 1910 58.2   0.3 55   1 42.2   0.6 7.0   1.4 WSW | 249 15.8   3.4 SW | 235 0.00 19.4   0.1 76.6   0.5 0.00 53.2   2.1 65.0   1.3 30.8   1.4
Caughlin (Hunter Lake Trail) 9/4/26 1910 59.1   0.7 49   4 40.0   1.4 21.9   17.9 WSW | 243 36.6   28.2 SW | 234 0.00 16.2   0.1 70.6   1.5 0.00 52.6   2.4 64.3   1.0 36.6   6.2
ArrowCreek 9/4/26 1910 60.7   1.1 43   10 38.1   4.4 8.3   4.8 SSW | 211 16.3   7.0 SSW | 206 0.00 - 32.0   0.0 0.00 56.1   2.9 65.3   1.5 30.7   7.2
Tracy 9/4/26 1910 66.5   1.1 41   3 42.4   0.9 15.4   1.8 NW | 322 25.7   1.0 NW | 312 0.00 15.6   0.1 76.6   0.7 0.00 62.2   3.9 71.8   1.3 35.9   4.2
Virginia Highlands 9/4/26 1910 55.3   0.1 59   3 41.4   1.3 12.3   7.6 WSW | 250 22.7   11.7 W | 271 0.00 7.8   0.1 72.0   0.2 0.00 53.4   4.2 62.2   1.4 34.9   4.3
Virginia City 9/4/26 1910 55.6   0.5 50   2 37.4   1.6 9.4   3.2 SW | 223 19.2   4.4 WSW | 242 0.00 4.8   0.0 71.7   0.3 0.00 52.8   3.0 61.9   1.9 34.8   4.8
Six Mile Canyon 9/4/26 1910 65.6   0.4 35   2 37.5   2.1 11.6   2.9 W | 270 20.9   4.7 WSW | 252 0.00 12.3   0.0 76.6   0.3 0.00 61.9   7.4 72.1   1.4 35.6   0.1
Mt Rose Highway 9/4/26 1910 49.3   2.1 63   12 37.5   2.4 3.1   1.8 SSW | 195 10.7   6.6 SSE | 163 0.00 7.4   0.1 59.5   1.1 0.03 44.9   1.5 56.2   0.1 31.3   2.7
Pleasant Valley 9/4/26 1910 61.0   0.6 47   6 40.8   2.5 16.4   4.1 SW | 231 24.1   5.6 WSW | 238 0.00 2.3   0.0 74.0   1.9 0.00 56.6   0.5 66.4   1.2 30.2   6.7
New Washoe City 9/4/26 1910 58.7   0.5 55   0 42.5   0.7 9.8   2.7 WSW | 241 15.4   5.8 WSW | 252 0.00 3.4   0.0 70.7   0.6 0.00 57.6   4.8 65.6   1.3 33.0   3.5
Franktown Creek 9/4/26 1910 59.6   0.5 53   4 42.3   1.5 2.2   1.8 SW | 235 8.7   3.4 SSW | 210 0.00 7.0   0.0 69.8   0.9 0.00 55.1   1.0 64.9   1.8 25.5   7.4
Musgrove Creek 9/4/26 1910 56.7   0.3 60   1 43.0   0.0 1.9   0.0 E | 81 9.3   4.1 WSW | 250 0.00 10.2   0.1 59.8   0.3 0.01 51.9   1.1 63.3   0.6 18.5   4.1
East Carson 11/23/24 0110 28.6   28.4 - - 4.7   11.0 SW | 220 14.7   10.1 SW | 219 0.02 - 50.9   0.1 0.02 -25.9   79.1 42.9   14.6 16.0   10.7
Kings Canyon 9/4/26 1910 60.0   0.0 47   3 39.6   1.4 7.2   1.5 SW | 236 18.3   4.5 W | 281 0.00 4.2   0.0 67.7   0.8 0.00 57.1   3.0 63.9   1.8 26.0   3.5
Carson City (Voltaire Canyon) 9/4/26 1910 61.4   0.2 45   2 39.8   1.6 8.7   13.3 SW | 224 13.2   20.0 SW | 216 0.00 2.8   0.1 76.4   0.8 0.00 58.8   5.5 66.0   3.0 40.4   0.9
Jacks Valley 9/4/26 1910 60.4   0.3 46   1 39.8   1.0 9.4   6.9 W | 269 15.6   13.0 W | 269 0.00 4.6   0.1 76.4   3.0 0.00 57.7   3.4 67.2   0.7 33.7   5.7
Genoa 9/4/26 1910 62.2   0.1 48   1 42.2   0.9 2.6   0.5 WNW | 295 11.2   0.5 WSW | 255 0.00 2.4   0.0 70.1   4.5 0.00 59.7   4.3 68.6   2.4 13.9   5.1
South Genoa (Walleys Hot Springs) 9/4/26 1910 64.6   0.2 42   3 40.8   1.5 5.1   0.3 WSW | 246 9.9   8.6 WSW | 245 0.00 4.4   0.1 73.2   0.3 0.00 60.5   12.1 67.9   2.7 25.0   4.8
SW Gardnerville (HWY 88) 9/4/26 1910 61.4   2.1 46   3 40.6   0.1 10.2   7.2 S | 184 15.9   8.3 S | 191 0.00 2.8   0.0 67.7   0.1 0.00 59.6   13.6 67.0   3.9 31.9   4.5
Sheridan 9/4/26 1910 62.2   1.5 43   1 39.7   0.6 6.7   2.5 ESE | 122 13.4   5.7 SE | 134 0.00 1.1   0.0 71.0   1.5 0.00 59.2   10.1 67.8   5.0 24.6   2.1
Ruhenstroth 9/4/26 1910 61.8   0.5 42   2 38.8   0.7 12.9   4.9 SSW | 208 25.1   2.9 SSW | 212 0.00 6.9   0.1 75.0   2.8 0.00 58.7   4.5 68.2   1.8 31.7   4.1
Double Spring 9/4/26 1910 59.2   0.3 44   3 37.5   1.3 10.4   1.2 W | 266 20.7   6.1 WSW | 256 0.00 25.2   0.0 76.6   2.2 0.00 54.7   16.0 66.4   0.2 32.8   5.7
North Topaz Lake 9/4/26 1910 62.2   0.3 40   6 37.5   3.1 13.2   5.5 WSW | 240 25.1   11.1 SW | 226 0.00 7.8   0.0 79.1   0.9 0.00 58.5   4.0 70.8   0.4 30.9   2.0
Wild Oat Mountain 9/4/26 1910 60.5   0.7 39   8 35.8   4.1 19.0   9.6 WSW | 243 29.7   8.7 WSW | 247 0.00 5.8   0.0 75.9   0.5 0.00 56.5   4.5 68.3   0.3 42.5   10.8
Smith Valley 9/4/26 1910 67.0   0.8 34   5 37.7   2.8 17.8   7.2 WSW | 248 33.2   11.8 W | 259 0.00 2.9   0.0 80.2   0.7 0.00 62.6   5.4 76.5   0.3 41.2   9.8
Pine Grove Mountain 9/4/26 1910 51.8   0.5 51   0 34.5   0.5 10.4   1.2 WNW | 283 15.8   5.6 WSW | 255 0.00 6.8   0.1 68.7   0.2 0.00 45.6   0.4 62.9   0.6 26.6   4.2
Paradise Hill 9/4/26 1910 63.5   3.4 46   7 42.3   1.5 13.0   0.1 NW | 311 20.1   0.1 WNW | 299 0.00 9.8   0.1 75.1   0.3 0.00 53.1   2.7 66.6   6.0 36.3   5.7
Winnemucca 9/4/26 1910 63.1   3.9 48   10 43.4   2.7 3.5   2.0 W | 265 8.3   4.4 W | 265 0.00 5.6   0.0 73.4   0.1 0.00 52.1   2.9 68.1   5.8 22.5   2.9
NE Elko 9/4/26 1910 71.9   3.9 28   8 36.7   5.5 7.0   1.3 W | 279 13.8   4.7 WNW | 292 0.00 5.7   0.0 76.1   0.5 0.00 44.9   7.3 79.0   0.1 28.4   2.7
North Elko 9/4/26 1910 69.4   2.2 30   9 37.1   6.3 12.4   0.5 NW | 319 18.4   1.9 NW | 312 0.00 24.5   0.0 73.2   0.3 0.00 53.7   0.2 76.8   0.1 22.1   4.3
South Elko 9/4/26 1910 67.7   1.5 31   7 35.7   5.1 8.9   3.9 WNW | 300 12.7   6.0 WNW | 298 0.00 13.7   0.1 73.4   0.3 0.00 53.2   0.4 110.0 22.2   5.7
Lamoille 9/4/26 1910 68.9   3.1 31   11 36.6   8.3 6.9   2.1 SW | 234 9.8   2.6 WSW | 240 0.00 6.2   0.0 70.1   0.5 0.00 46.6   6.3 77.3   2.7 21.9   4.5
Reid Gardner Sub 9/4/26 1910 94.0   0.5 12   1 33.7   2.2 8.4   3.7 SSE | 158 14.0   3.5 SSE | 151 0.00 26.3   1.5 89.3   0.7 0.00 59.8   4.6 97.7   0.3 35.2   9.2
Corn Creek 9/4/26 1910 85.9   0.7 18   2 37.5   3.4 13.2   10.0 ESE | 111 17.8   16.3 ESE | 114 0.00 3.1   0.1 91.4   0.1 0.00 70.3   1.7 91.9   0.5 40.0   1.1
Lucky Strike 9/4/26 1910 73.0   2.4 21   8 30.9   9.4 7.3   2.5 SE | 142 10.4   6.3 SE | 139 0.00 3.1   0.1 86.2   1.6 0.00 62.9   0.3 78.6   2.4 38.9   7.7
Lower Angel Peak 9/4/26 1910 67.4   1.3 27   10 31.9   9.7 8.7   2.1 SSE | 159 17.0   4.4 SE | 138 0.00 3.2   0.1 74.1   0.1 0.00 55.9   2.2 75.1   1.1 27.1   4.2
Angel Peak 9/4/26 1910 55.1   1.8 36   15 28.9   10.7 32.6   22.9 S | 190 40.4   25.6 SSW | 192 0.00 2.6   0.1 70.9   0.6 0.00 54.4   0.6 64.8   0.2 41.9   13.5
Upper Kyle Canyon 9/4/26 1910 59.9   0.9 32   9 29.8   7.0 6.9   1.1 ENE | 76 23.8   0.6 W | 265 0.00 7.7   0.0 75.0   0.1 0.00 56.6   1.1 67.7   1.8 29.1   3.7
Mt Charleston 9/4/26 1910 60.9   0.2 31   5 30.1   4.4 3.0   6.5 N | 354 9.1   15.8 NNE | 27 0.00 13.1   0.0 67.2   0.6 0.00 56.2   1.8 67.5   1.4 28.7   1.9
Mid Kyle Canyon 9/4/26 1910 66.9   1.1 27   7 31.5   6.1 3.5   6.8 WSW | 239 7.3   9.1 W | 268 0.00 5.8   0.0 75.4   0.0 0.00 64.0   7.4 75.2   1.3 35.0   3.0
Blue Diamond 9/4/26 1910 84.2   0.7 17   2 35.4   3.0 7.6   2.9 W | 263 15.8   3.2 W | 275 0.00 1.3   0.0 90.5   0.6 0.00 70.7   3.8 89.7   2.3 27.8   2.2
Artesian Sub 9/4/26 1910 94.6   1.0 13   0 35.8   1.6 4.4   0.1 SSW | 197 10.4   0.6 SSW | 196 0.00 11.7   0.1 92.2   0.3 0.00 78.1   1.2 100.2   1.5 19.9   3.4
North Henderson 9/4/26 1910 95.4   0.4 13   1 36.2   2.6 4.3   2.4 SW | 234 8.7   4.5 SSW | 211 0.00 10.5   0.1 95.3   0.5 0.00 79.1   1.3 99.8   0.6 33.4   5.7
Sandy Valley 9/4/26 1910 86.2   1.0 19   1 38.8   2.4 4.6   0.3 W | 275 7.9   0.1 WSW | 254 0.00 7.6   0.2 93.1   0.1 0.00 68.4   0.6 90.7   1.3 24.2   1.7
Searchlight 9/4/26 1920 82.4   0.5 18   2 34.1   3.7 6.7   0.1 S | 179 10.7   0.1 S | 183 0.00 5.8   0.1 88.6   0.8 0.00 64.8   0.6 88.4   0.3 31.0   4.7
Laughlin 9/4/26 1910 99.9   2.6 10   2 32.9   2.2 10.4   5.4 SSE | 162 14.8   5.6 SSE | 155 0.00 4.4   0.1 99.3   0.6 0.00 78.8   1.4 103.4   1.8 32.9   6.0
31Mission Hills 9/4/26 1910 90.0   0.8 12   1 29.6   2.3 8.1   1.5 S | 182 20.5   4.6 SSE | 162 0.00 6.6   0.2 94.1   0.3 0.00 73.8   0.4 94.2   0.5 38.5   6.0
32 Enterprise Sierra Cliffs 9/4/26 1910 85.9   0.7 14   1 30.8   3.2 9.4   2.2 SW | 224 13.4   4.9 SW | 224 0.00 1.5   0.1 93.7   1.6 0.00 69.6   3.2 91.1   1.3 24.1   6.6
29 Calico Basin 9/4/26 1910 82.3   0.6 16   2 31.2   4.1 11.1   0.6 SSW | 202 19.6   0.4 SW | 217 0.00 2.4   0.0 87.4   0.6 0.00 68.3   0.6 87.6   1.5 26.7   2.9
28 Indian Springs 9/4/26 1910 84.9   0.2 15   3 32.7   5.8 14.6   5.4 WSW | 238 21.1   3.3 WSW | 240 0.00 4.5   0.1 86.9   1.6 0.00 65.0   3.4 92.9   0.8 29.9   3.1
30 Jean 9/4/26 1910 85.3   0.1 14   2 30.3   3.7 6.6   6.5 WSW | 253 9.1   9.9 W | 262 0.00 5.1   0.1 92.0   0.3 0.00 67.3   1.8 91.8   2.1 29.1   0.1
VC Highlands NW 9/4/26 1910 53.7   0.0 57   3 39.0   1.4 7.1   4.3 W | 259 17.4   5.2 WSW | 244 0.00 1.6   0.1 67.6   2.3 0.00 51.2   2.5 61.6   1.4 27.1   1.9
Glenbrook-Spooner Summit 9/4/26 1910 50.5   0.7 61   1 37.6   0.2 5.8   2.0 WSW | 255 11.6   8.7 WSW | 247 0.00 7.8   0.0 68.6   0.8 0.00 46.7   0.4 55.5   1.2 23.8   5.8
Hobo Hot Springs 9/4/26 1910 63.4   0.2 40   4 38.5   2.3 5.0   7.9 WSW | 251 8.9   14.4 WSW | 254 0.00 1.1   0.0 70.7   0.7 0.00 59.8   10.2 70.0   0.9 27.2   10.8
Jack Valley Ranch 2 9/4/26 1910 60.4   0.3 44   3 38.4   1.6 6.3   0.8 W | 264 13.2   1.1 WSW | 251 0.00 2.1   0.1 72.7   1.3 0.00 57.0   2.9 67.0   0.8 26.3   3.9
Genoa North 2 9/4/26 1910 61.2   0.2 45   2 39.6   1.1 4.1   0.6 WSW | 242 10.7   0.1 SW | 235 0.00 0.8   0.0 73.4   2.9 0.00 58.3   4.8 68.5   1.5 23.7   10.3
Mottsville 2 9/4/26 1910 62.0   1.9 42   2 38.5   0.6 1.8   2.0 NNW | 344 5.3   3.3 N | 349 0.00 1.3   0.0 70.6   1.1 0.00 59.1   9.6 68.3   2.9 28.4   3.7
Kingsbury Village 3 9/4/26 1910 46.4   0.1 71   1 37.4   0.3 0.9   1.7 NW | 322 4.5   5.7 W | 261 0.00 3.2   0.0 59.7   2.4 0.00 43.2   2.8 52.9   2.8 15.5   0.9
Kingsbury-Benjamin Dr 2 9/4/26 1910 48.7   0.2 66   1 38.1   0.2 1.0   1.5 W | 274 4.1   7.2 SW | 231 0.00 2.9   0.1 65.4   3.8 0.00 44.9   3.0 55.6   2.7 16.5   8.4
Smith Valley-Wellington 9/4/26 1910 66.2   0.1 33   3 36.4   2.2 18.0   9.7 SW | 233 29.6   13.2 SW | 221 0.00 3.6   0.0 80.3   0.3 0.00 60.7   3.3 75.2   0.5 36.9   5.8
Sheridan South 2 9/4/26 1910 62.3   1.1 41   1 38.3   0.4 8.5   1.9 SE | 133 16.5   9.3 SE | 144 0.00 0.4   0.1 71.4   2.8 0.00 58.7   11.4 65.8   5.0 28.1   0.9
Silver Springs 9/4/26 1910 68.6   0.7 31   3 37.0   1.9 20.5   1.4 WSW | 255 30.3   2.9 WSW | 245 0.00 5.0   0.1 77.4   1.3 0.00 62.9   8.7 74.9   1.2 42.5   0.0
Fernley 9/4/26 1910 68.2   0.3 33   0 38.3   0.4 11.0   0.3 NNW | 336 17.8   10.4 NNW | 345 0.00 3.2   0.0 79.9   1.1 0.00 59.3   5.4 74.6   0.9 36.6   3.9
Spanish Springs 9/4/26 1910 63.0   0.5 42   2 39.5   0.9 7.0   0.2 WNW | 285 12.8   0.4 WNW | 291 0.00 10.2   0.0 76.8   0.2 0.00 57.6   0.1 70.2   0.1 26.2   0.7
Suttcliffe South 2 9/4/26 1910 64.3   0.9 40   2 39.8   0.2 11.1   7.6 W | 276 19.5   10.3 W | 272 0.00 4.2   0.0 76.7   2.2 0.00 53.4   3.2 72.3   1.2 35.0   7.6
Lemmon Valley North 9/4/26 1910 59.2   2.5 44   10 37.3   2.8 11.0   0.0 SSW | 212 19.8   3.2 SW | 218 0.00 2.0   0.0 69.7   0.4 0.02 52.2   3.3 65.5   1.1 29.7   2.7
Lemmon Valley NW 3 9/4/26 1910 59.0   0.6 46   4 38.5   1.4 7.8   5.2 NW | 304 13.4   8.2 WNW | 298 0.00 1.3   0.0 79.3   1.9 0.00 53.7   0.8 66.0   2.7 31.3   0.9
VC Highlands North 9/4/26 1910 55.4   0.0 55   3 39.4   1.4 9.2   2.6 SW | 228 19.0   5.5 SW | 231 0.00 4.9   0.1 78.2   0.3 0.00 53.2   3.0 62.6   0.9 27.4   2.6
Upper Voltaire Cyn 9/4/26 1910 57.3   0.1 48   2 37.8   1.3 8.7   4.8 SW | 225 17.5   7.3 WSW | 248 0.00 1.1   0.0 67.4   3.0 0.00 54.7   1.2 60.8   3.3 35.9   2.4
Yerington NW 9/4/26 1910 67.0   0.2 35   1 38.3   0.8 11.5   13.6 WSW | 258 19.0   14.3 W | 268 0.00 7.2   0.0 76.5   0.5 0.00 60.1   10.7 75.3   0.1 32.9   8.8
Spanish Springs SW 9/4/26 1910 61.6   1.1 43   3 38.8   0.9 10.4   0.9 WSW | 255 16.6   7.2 W | 273 0.00 1.5   0.1 79.4   0.4 0.00 57.3   0.9 69.0   1.4 27.0   8.2
Cosgrave 2 8/27/26 0750 62.9   4.1 34   3 33.8   1.4 2.6   0.5 WSW | 246 4.1   1.0 W | 267 0.00 3.8   0.1 77.4   2.9 0.00 62.7   3.3 77.4   3.5 11.2   3.9
Winnemucca-Grass Valley 2 9/4/26 1910 62.6   6.7 50   19 43.7   6.4 10.4   4.8 N | 358 15.3   7.0 N | 0 0.00 7.8   0.1 70.4   0.5 0.00 48.6   0.4 69.3   5.1 26.6   2.9
Winnemucca-Dutch Flat Rd 9/4/26 1910 63.2   2.7 45   8 41.4   2.5 4.2   4.0 NE | 46 8.9   5.7 ENE | 65 0.00 6.2   0.1 75.1   1.0 0.00 50.8   3.4 67.9   6.7 29.4   1.4
Paradise Valley 2 9/4/26 1910 63.1   3.8 42   9 39.5   2.9 9.1   7.2 NW | 305 14.9   6.3 NW | 312 0.00 12.6   0.1 75.2   2.7 0.00 48.4   3.9 70.5   2.0 27.4   3.2
Golconda 2 9/4/26 1910 61.8   6.1 51   17 43.4   5.4 15.3   0.9 NNW | 340 22.6   1.0 NNW | 333 0.00 1.9   0.1 77.3   3.6 0.00 50.8   2.3 69.6   5.5 29.6   3.8
Battle Mountain - South 9/4/26 1910 64.6   9.8 46   27 43.2   14.5 17.7   10.8 NNW | 330 26.4   13.9 NNW | 329 0.00 9.3   0.0 76.6   1.0 0.00 50.9   1.2 77.2   1.4 30.6   3.5
Geiger Summit 9/4/26 1910 51.9   0.6 100   0 51.9   0.6 9.8   2.3 SW | 218 19.5   1.9 SW | 223 0.00 6.3   0.0 69.4   1.3 0.00 50.2   3.3 59.6   1.3 30.4   4.7
Combs Canyon 3 9/4/26 1910 61.7   0.1 41   3 38.0   1.6 9.2   0.8 WSW | 250 18.0   0.7 SW | 229 0.00 1.1   0.0 77.5   1.4 0.00 58.7   4.5 68.4   1.3 27.0   2.0
Clear Creek 9/4/26 1910 57.8   0.0 48   2 38.1   0.9 9.3   0.7 SW | 222 16.9   3.7 SSW | 208 0.00 3.4   0.0 67.3   2.4 0.00 55.0   1.8 61.5   3.4 29.7   1.5
Eastlake 2 9/4/26 1910 60.3   0.0 50   1 41.5   0.7 12.3   8.9 WSW | 237 17.9   7.0 WSW | 244 0.00 3.4   0.0 71.8   0.0 0.00 58.0   3.4 67.6   0.6 29.2   1.0
Lovelock-Colado 2 9/4/26 1910 65.8   5.0 45   13 43.9   4.1 8.3   0.0 NNE | 27 13.3   1.0 NNE | 31 0.00 - 76.5   0.5 0.00 45.5   8.6 74.3   3.1 20.9   4.1
Spanish Springs NW 9/4/26 1910 62.4   0.4 42   2 38.9   1.3 11.8   6.2 WNW | 284 20.2   10.5 WNW | 292 0.00 12.2   0.1 69.8   0.1 0.00 58.4   1.2 70.2   1.7 25.7   5.2
Battle Mountain NW 9/4/26 1910 63.2   10.5 48   29 43.4   13.6 13.8   5.5 WNW | 301 20.0   5.7 WNW | 294 0.00 8.7   0.1 75.7   1.1 0.00 54.5   2.2 72.8   5.6 26.1   8.1
Austin 2 9/4/26 1810 65.1   4.3 30   12 33.1   8.5 2.0   4.1 WNW | 298 6.3   3.6 WNW | 296 0.00 2.7   0.1 76.6   4.1 0.00 37.6   0.8 74.2   0.8 24.7   12.4
Elko-Osino 9/4/26 1910 72.0   2.9 26   8 35.2   7.2 13.8   3.9 NW | 322 17.9   1.6 NW | 318 0.00 1.5   0.1 80.9   0.8 0.00 44.2   7.9 79.3   0.7 23.2   4.1
Elko-Bill Fishpond 2 9/4/26 1910 69.6   4.5 25   9 32.2   7.3 3.3   2.2 SSW | 198 5.2   4.7 SE | 144 0.00 3.6   0.0 72.0   0.6 0.00 48.4   3.3 78.4   1.5 17.9   9.6
Spring Creek SE 2 9/4/26 1910 70.6   3.4 25   10 33.4   8.9 7.1   0.8 WNW | 298 11.0   0.9 NW | 309 0.00 0.2   0.0 71.1   0.1 0.00 44.2   7.1 78.3   1.2 28.4   1.0
Spring Creek NW 9/4/26 1910 70.9   1.6 26   6 34.2   5.4 9.6   3.6 NW | 321 14.2   8.0 NW | 309 0.00 2.2   0.0 73.9   0.4 0.00 49.2   2.6 78.1   1.4 23.5   1.0
Elko-Moleen 9/4/26 1910 72.3   0.8 25   6 34.7   5.9 6.5   5.7 NW | 312 11.4   8.1 NW | 320 0.00 6.3   0.0 78.4   0.6 0.00 43.6   3.6 79.4   0.1 21.5   4.0
Elko-West 9/4/26 1910 72.4   1.3 26   7 35.8   6.4 8.6   3.2 NW | 320 14.5   6.5 NNW | 334 0.00 33.7   0.1 68.8   0.3 0.00 41.6   3.9 80.3   0.9 27.1   2.6
Elko-Adobe Creek 9/4/26 1910 63.6   2.2 33   10 34.2   7.1 10.9   2.8 NNW | 348 16.3   4.4 N | 0 0.00 18.6   0.0 69.5   0.5 0.00 48.6   0.2 72.4   1.9 24.3   10.1
Tuscarora SW 9/4/26 1910 58.8   5.4 53   25 41.5   11.6 12.5   11.2 N | 349 18.6   14.3 N | 351 0.00 6.8   0.0 71.2   1.4 0.00 42.7   4.5 70.0   2.7 25.2   5.8
Elko-Monument Peak 9/4/26 1910 63.8   3.6 36   13 36.0   8.6 9.6   2.5 NNW | 346 14.5   3.0 NW | 323 0.00 4.3   0.4 72.3   0.4 0.00 38.0   6.2 74.3   1.9 23.6   5.8
Wild Horse 9/4/26 1910 54.6   10.9 55   31 38.9   11.0 16.4   6.8 N | 8 24.5   9.8 N | 6 0.00 4.6   0.0 67.1   0.5 0.00 49.2   1.5 67.7   1.9 26.0   3.7
Max     99.9 100 51.9 34.7 - 43.4 - 0.00 43.4 99.3 0.22 79.1 110.0 50.9
Avg     63.7 43 38.2 9.1 - 16.0 - 0.00 7.1 73.6 - - - -
Min     46.4 10 28.9 0.7 - 3.8 - 0.00 0.2 32.0 0.00 37.6 50.7 12.5